createdAt,value
2019-05-02T00:01:14.188Z,37.98
2019-05-02T00:03:48.515Z,43.13
2019-05-02T00:06:22.523Z,36.75
2019-05-02T00:08:56.651Z,38.42
2019-05-02T00:11:30.925Z,40.25
2019-05-02T00:14:06.152Z,38.53
2019-05-02T00:16:40.273Z,38.17
2019-05-02T00:21:49.282Z,36.48
2019-05-02T00:24:23.320Z,39.25
2019-05-02T00:32:05.799Z,43.05
2019-05-02T00:34:39.855Z,42.45
2019-05-02T00:39:49.311Z,41.18
2019-05-02T00:42:24.046Z,38.17
2019-05-02T00:44:58.255Z,37.83
2019-05-02T00:50:32.477Z,35.98
2019-05-02T00:53:07.136Z,34.13
2019-05-02T00:55:42.143Z,33.78
2019-05-02T00:58:16.156Z,34.73
2019-05-02T01:03:28.085Z,32.50
2019-05-02T01:06:02.370Z,35.92
2019-05-02T01:08:36.986Z,35.55
2019-05-02T01:11:11.269Z,31.70
2019-05-02T01:13:45.155Z,33.02
2019-05-02T01:16:20.324Z,34.85
2019-05-02T01:18:54.369Z,34.65
2019-05-02T01:21:28.410Z,32.95
2019-05-02T01:29:16.621Z,32.23
2019-05-02T01:31:54.744Z,31.27
2019-05-02T01:34:38.403Z,33.05
2019-05-02T01:37:29.990Z,31.00
2019-05-02T01:40:04.807Z,30.23
2019-05-02T01:42:40.215Z,33.90
2019-05-02T01:45:14.875Z,28.90
2019-05-02T01:47:48.970Z,30.15
2019-05-02T01:52:58.529Z,28.20
2019-05-02T01:55:31.800Z,32.80
2019-05-02T01:58:05.927Z,30.90
2019-05-02T02:03:14.911Z,28.02
2019-05-02T02:05:48.927Z,27.87
2019-05-02T02:10:58.215Z,25.52
2019-05-02T02:13:36.542Z,25.50
2019-05-02T02:16:08.219Z,25.40
2019-05-02T02:18:46.538Z,25.82
2019-05-02T02:21:28.084Z,23.38
2019-05-02T02:24:21.237Z,25.05
2019-05-02T02:26:55.727Z,24.32
2019-05-02T02:29:29.888Z,25.00
2019-05-02T02:32:03.856Z,23.75
2019-05-02T02:34:37.773Z,24.40
2019-05-02T02:37:14.719Z,24.05
2019-05-02T02:39:48.384Z,24.25
2019-05-02T02:42:25.159Z,20.45
2019-05-02T02:45:00.339Z,25.17
2019-05-02T02:47:34.453Z,24.80
2019-05-02T02:52:45.091Z,21.52
2019-05-02T02:55:22.024Z,22.07
2019-05-02T02:57:58.401Z,20.43
2019-05-02T03:00:29.040Z,22.50
2019-05-02T03:05:36.029Z,18.45
2019-05-02T03:08:10.075Z,22.80
2019-05-02T03:13:21.692Z,21.33
2019-05-02T03:16:00.408Z,19.57
2019-05-02T03:18:40.552Z,21.93
2019-05-02T03:21:13.634Z,21.90
2019-05-02T03:23:46.119Z,20.25
2019-05-02T03:26:20.247Z,21.45
2019-05-02T03:28:58.551Z,20.23
2019-05-02T03:31:31.539Z,22.73
2019-05-02T03:34:06.218Z,21.85
2019-05-02T03:36:40.425Z,23.57
2019-05-02T03:39:17.474Z,22.55
2019-05-02T03:41:55.831Z,20.92
2019-05-02T03:44:26.867Z,15.72
2019-05-02T03:49:40.742Z,18.07
2019-05-02T03:52:12.130Z,17.75
2019-05-02T03:54:50.315Z,20.40
2019-05-02T03:57:31.687Z,20.00
2019-05-02T03:59:57.997Z,17.60
2019-05-02T04:02:32.453Z,18.57
2019-05-02T04:05:07.421Z,19.10
2019-05-02T04:07:42.341Z,19.65
2019-05-02T04:10:21.407Z,21.60
2019-05-02T04:12:58.400Z,20.45
2019-05-02T04:15:35.162Z,19.55
2019-05-02T04:18:08.302Z,19.85
2019-05-02T04:20:49.724Z,20.45
2019-05-02T04:23:27.830Z,23.98
2019-05-02T04:25:58.606Z,21.20
2019-05-02T04:28:34.183Z,21.05
2019-05-02T04:31:08.272Z,19.92
2019-05-02T04:36:17.944Z,20.15
2019-05-02T04:38:52.686Z,16.67
2019-05-02T04:41:30.330Z,18.77
2019-05-02T04:44:02.877Z,15.60
2019-05-02T04:49:11.764Z,14.20
2019-05-02T04:54:25.824Z,15.10
2019-05-02T04:56:59.091Z,16.00
2019-05-02T04:59:33.414Z,14.07
2019-05-02T05:02:09.109Z,18.32
2019-05-02T05:04:48.712Z,13.70
2019-05-02T05:07:19.010Z,16.60
2019-05-02T05:10:00.847Z,17.98
2019-05-02T05:12:32.522Z,16.42
2019-05-02T05:15:07.848Z,16.42
2019-05-02T05:17:41.763Z,16.15
2019-05-02T05:20:15.982Z,14.38
2019-05-02T05:22:51.881Z,12.65
2019-05-02T05:28:11.692Z,13.88
2019-05-02T05:33:20.726Z,16.77
2019-05-02T05:38:32.199Z,15.35
2019-05-02T05:41:08.904Z,14.40
2019-05-02T05:43:39.651Z,16.50
2019-05-02T05:48:47.774Z,13.58
2019-05-02T05:51:21.903Z,14.15
2019-05-02T06:01:39.174Z,14.15
2019-05-02T06:04:13.811Z,13.62
2019-05-02T06:06:48.981Z,16.17
2019-05-02T06:09:26.426Z,18.85
2019-05-02T06:11:58.799Z,14.90
2019-05-02T06:14:34.535Z,14.75
2019-05-02T06:17:08.875Z,14.60
2019-05-02T06:22:24.162Z,14.20
2019-05-02T06:24:52.660Z,14.45
2019-05-02T06:30:01.929Z,13.38
2019-05-02T06:32:36.173Z,14.83
2019-05-02T06:35:10.501Z,15.83
2019-05-02T06:37:45.374Z,14.93
2019-05-02T06:40:20.299Z,12.53
2019-05-02T06:45:32.265Z,13.05
2019-05-02T06:48:04.017Z,14.75
2019-05-02T06:53:13.057Z,17.32
2019-05-02T06:58:20.294Z,17.00
2019-05-02T07:00:58.337Z,14.55
2019-05-02T07:03:30.419Z,14.85
2019-05-02T07:06:07.444Z,14.38
2019-05-02T07:08:40.527Z,15.75
2019-05-02T07:11:14.820Z,12.60
2019-05-02T07:13:49.035Z,13.13
2019-05-02T07:16:39.821Z,14.25
2019-05-02T07:19:27.378Z,13.83
2019-05-02T07:22:04.196Z,13.65
2019-05-02T07:24:36.719Z,14.85
2019-05-02T07:27:10.969Z,18.57
2019-05-02T07:29:45.393Z,24.75
2019-05-02T07:32:24.636Z,15.83
2019-05-02T07:34:55.407Z,16.67
2019-05-02T07:40:02.701Z,12.07
2019-05-02T07:45:12.675Z,12.82
2019-05-02T07:47:46.981Z,13.50
2019-05-02T07:50:21.851Z,12.75
2019-05-02T07:52:55.975Z,13.75
2019-05-02T07:58:06.845Z,12.68
2019-05-02T08:00:41.277Z,13.08
2019-05-02T08:03:15.431Z,14.00
2019-05-02T08:05:49.414Z,13.32
2019-05-02T08:08:25.095Z,9.60
2019-05-02T08:11:01.682Z,21.82
2019-05-02T08:13:35.427Z,10.93
2019-05-02T08:16:09.881Z,12.25
2019-05-02T08:18:44.325Z,12.78
2019-05-02T08:21:19.047Z,10.40
2019-05-02T08:23:57.105Z,13.10
2019-05-02T08:26:30.685Z,13.62
2019-05-02T08:29:09.375Z,11.10
2019-05-02T08:31:43.575Z,11.28
2019-05-02T08:34:19.018Z,10.13
2019-05-02T08:36:53.021Z,12.80
2019-05-02T08:39:33.003Z,10.13
2019-05-02T08:42:03.127Z,11.68
2019-05-02T08:44:50.394Z,10.58
2019-05-02T08:47:19.110Z,8.93
2019-05-02T08:49:54.639Z,10.80
2019-05-02T08:52:25.841Z,8.35
2019-05-02T08:55:04.484Z,11.68
2019-05-02T08:57:36.376Z,9.78
2019-05-02T09:00:12.275Z,10.30
2019-05-02T09:02:46.514Z,8.98
2019-05-02T09:05:20.893Z,8.78
2019-05-02T09:07:54.867Z,10.45
2019-05-02T09:10:29.001Z,8.53
2019-05-02T09:15:40.364Z,9.90
2019-05-02T09:18:13.136Z,8.85
2019-05-02T09:20:52.626Z,9.83
2019-05-02T09:23:27.574Z,7.85
2019-05-02T09:25:59.218Z,9.58
2019-05-02T09:31:07.144Z,7.87
2019-05-02T09:33:45.604Z,6.60
2019-05-02T09:36:17.272Z,9.98
2019-05-02T09:38:53.987Z,6.90
2019-05-02T09:41:31.775Z,6.42
2019-05-02T09:44:03.356Z,7.45
2019-05-02T09:46:37.522Z,7.20
2019-05-02T09:51:50.283Z,9.38
2019-05-02T09:54:23.290Z,7.28
2019-05-02T09:56:57.863Z,8.05
2019-05-02T09:59:33.207Z,6.58
2019-05-02T10:02:08.203Z,5.37
2019-05-02T10:04:44.104Z,6.12
2019-05-02T10:07:18.958Z,9.15
2019-05-02T10:09:57.619Z,8.20
2019-05-02T10:12:32.019Z,8.38
2019-05-02T10:15:08.597Z,8.13
2019-05-02T10:17:46.708Z,6.92
2019-05-02T10:20:23.482Z,8.15
2019-05-02T10:22:55.053Z,8.90
2019-05-02T10:25:32.826Z,8.95
2019-05-02T10:28:05.801Z,7.47
2019-05-02T10:30:39.973Z,10.95
2019-05-02T10:35:52.289Z,10.50
2019-05-02T10:38:26.831Z,8.40
2019-05-02T10:41:02.625Z,10.80
2019-05-02T10:43:37.664Z,10.50
2019-05-02T10:46:22.989Z,15.95
2019-05-02T10:48:58.997Z,12.45
2019-05-02T10:51:34.890Z,11.33
2019-05-02T10:54:09.258Z,11.18
2019-05-02T10:56:43.445Z,12.95
2019-05-02T10:59:17.967Z,12.70
2019-05-02T11:02:10.271Z,12.50
2019-05-02T11:04:46.166Z,11.93
2019-05-02T11:07:22.779Z,13.65
2019-05-02T11:09:57.272Z,12.40
2019-05-02T11:12:41.862Z,10.28
2019-05-02T11:15:28.299Z,12.60
2019-05-02T11:18:02.498Z,9.90
2019-05-02T11:20:36.843Z,12.98
2019-05-02T11:23:12.677Z,12.23
2019-05-02T11:25:46.479Z,11.60
2019-05-02T11:28:22.037Z,10.82
2019-05-02T11:30:57.047Z,12.50
2019-05-02T11:33:32.577Z,9.65
2019-05-02T11:36:06.934Z,9.65
2019-05-02T11:38:45.140Z,11.50
2019-05-02T11:41:17.008Z,8.43
2019-05-02T11:43:54.112Z,9.28
2019-05-02T11:46:27.053Z,13.05
2019-05-02T11:49:02.374Z,10.48
2019-05-02T11:51:36.645Z,8.03
2019-05-02T11:56:48.863Z,16.25
2019-05-02T11:59:27.597Z,10.03
2019-05-02T12:02:09.391Z,12.20
2019-05-02T12:04:47.329Z,13.10
2019-05-02T12:07:19.443Z,8.68
2019-05-02T12:09:56.986Z,8.80
2019-05-02T12:12:34.332Z,10.43
2019-05-02T12:15:06.467Z,9.28
2019-05-02T12:17:41.962Z,11.15
2019-05-02T12:20:16.175Z,9.53
2019-05-02T12:25:23.943Z,8.90
2019-05-02T12:27:58.143Z,9.63
2019-05-02T12:30:34.178Z,10.45
2019-05-02T12:33:08.375Z,11.95
2019-05-02T12:35:43.396Z,8.80
2019-05-02T12:38:17.815Z,9.40
2019-05-02T12:40:52.175Z,7.97
2019-05-02T12:43:26.668Z,9.13
2019-05-02T12:46:02.233Z,10.03
2019-05-02T12:48:36.781Z,13.13
2019-05-02T12:51:12.702Z,8.75
2019-05-02T12:53:48.237Z,11.20
2019-05-02T12:56:23.000Z,10.20
2019-05-02T12:58:57.251Z,7.25
2019-05-02T13:01:32.979Z,8.00
2019-05-02T13:04:08.708Z,7.03
2019-05-02T13:06:42.693Z,7.47
2019-05-02T13:09:16.857Z,7.08
2019-05-02T13:11:58.547Z,8.10
2019-05-02T13:14:32.712Z,10.55
2019-05-02T13:17:07.606Z,10.38
2019-05-02T13:19:55.367Z,6.60
2019-05-02T13:22:19.342Z,8.23
2019-05-02T13:24:57.823Z,10.55
2019-05-02T13:27:42.869Z,7.00
2019-05-02T13:30:12.406Z,5.37
2019-05-02T13:32:52.848Z,6.78
2019-05-02T13:35:25.929Z,9.38
2019-05-02T13:38:02.752Z,8.00
2019-05-02T13:40:41.856Z,8.35
2019-05-02T13:43:16.209Z,5.92
2019-05-02T13:45:55.287Z,9.20
2019-05-02T13:48:29.713Z,9.18
2019-05-02T13:51:04.300Z,7.10
2019-05-02T13:53:39.749Z,9.45
2019-05-02T13:56:22.039Z,7.65
2019-05-02T13:58:56.183Z,8.38
2019-05-02T14:04:10.116Z,8.35
2019-05-02T14:06:39.519Z,11.12
2019-05-02T14:11:52.659Z,8.28
2019-05-02T14:14:26.863Z,6.65
2019-05-02T14:17:02.841Z,7.35
2019-05-02T14:19:36.993Z,6.72
2019-05-02T14:22:12.849Z,6.85
2019-05-02T14:24:47.003Z,6.17
2019-05-02T14:29:56.341Z,3.55
2019-05-02T14:32:32.750Z,7.25
2019-05-02T14:35:18.734Z,6.10
2019-05-02T14:38:09.894Z,6.92
2019-05-02T14:40:52.181Z,4.62
2019-05-02T14:43:46.835Z,7.03
2019-05-02T14:46:22.132Z,9.95
2019-05-02T14:48:56.550Z,6.65
2019-05-02T14:51:32.684Z,10.13
2019-05-02T14:54:08.323Z,6.00
2019-05-02T14:56:47.881Z,8.03
2019-05-02T14:59:23.065Z,8.08
2019-05-02T15:02:05.744Z,4.70
2019-05-02T15:04:38.177Z,5.78
2019-05-02T15:07:10.293Z,10.25
2019-05-02T15:12:19.106Z,10.83
2019-05-02T15:14:57.359Z,8.53
2019-05-02T15:17:36.326Z,6.90
2019-05-02T15:20:08.106Z,8.15
2019-05-02T15:22:42.557Z,10.43
2019-05-02T15:25:17.980Z,9.18
2019-05-02T15:27:58.560Z,6.53
2019-05-02T15:30:28.053Z,9.80
2019-05-02T15:33:03.697Z,9.25
2019-05-02T15:35:39.393Z,8.73
2019-05-02T15:38:24.198Z,7.72
2019-05-02T15:40:53.495Z,9.88
2019-05-02T15:43:27.080Z,7.90
2019-05-02T15:46:02.040Z,8.40
2019-05-02T15:48:36.179Z,7.90
2019-05-02T15:54:04.454Z,7.15
2019-05-02T15:56:27.073Z,8.08
2019-05-02T16:01:41.248Z,10.15
2019-05-02T16:04:24.059Z,7.80
2019-05-02T16:06:54.339Z,7.72
2019-05-02T16:09:28.589Z,6.67
2019-05-02T16:12:03.198Z,4.65
2019-05-02T16:14:37.418Z,5.03
2019-05-02T16:19:48.485Z,4.03
2019-05-02T16:22:23.297Z,5.10
2019-05-02T16:24:57.417Z,9.20
2019-05-02T16:30:24.006Z,4.45
2019-05-02T16:33:02.693Z,6.28
2019-05-02T16:35:37.102Z,8.68
2019-05-02T16:38:12.256Z,6.55
2019-05-02T16:40:48.019Z,10.03
2019-05-02T16:43:24.775Z,5.92
2019-05-02T16:45:58.696Z,9.05
2019-05-02T16:48:37.735Z,8.48
2019-05-02T16:51:27.585Z,5.92
2019-05-02T16:53:45.184Z,5.72
2019-05-02T16:56:19.561Z,5.70
2019-05-02T16:58:53.803Z,7.62
2019-05-02T17:01:28.565Z,5.42
2019-05-02T17:04:06.690Z,7.70
2019-05-02T17:06:39.802Z,7.78
2019-05-02T17:09:15.717Z,7.17
2019-05-02T17:11:49.845Z,9.38
2019-05-02T17:16:58.529Z,6.70
2019-05-02T17:19:34.730Z,8.03
2019-05-02T17:22:08.967Z,7.80
2019-05-02T17:24:43.315Z,6.30
2019-05-02T17:27:20.635Z,7.45
2019-05-02T17:29:59.365Z,8.10
2019-05-02T17:32:34.079Z,5.75
2019-05-02T17:35:09.948Z,12.25
2019-05-02T17:37:48.605Z,9.60
2019-05-02T17:40:22.473Z,8.70
2019-05-02T17:42:57.118Z,10.68
2019-05-02T17:45:33.423Z,8.60
2019-05-02T17:48:15.883Z,8.15
2019-05-02T17:50:49.374Z,10.05
2019-05-02T17:53:22.487Z,9.40
2019-05-02T17:55:56.798Z,7.15
2019-05-02T17:58:31.786Z,7.65
2019-05-02T18:01:07.600Z,7.72
2019-05-02T18:03:42.493Z,10.18
2019-05-02T18:06:17.376Z,6.78
2019-05-02T18:08:55.290Z,7.08
2019-05-02T18:11:29.588Z,6.35
2019-05-02T18:14:10.098Z,7.55
2019-05-02T18:16:39.474Z,7.80
2019-05-02T18:19:15.991Z,7.62
2019-05-02T18:21:49.691Z,7.42
2019-05-02T18:24:24.045Z,9.03
2019-05-02T18:26:58.303Z,9.45
2019-05-02T18:29:36.215Z,8.20
2019-05-02T18:32:08.598Z,10.88
2019-05-02T18:34:42.725Z,13.43
2019-05-02T18:37:16.989Z,10.40
2019-05-02T18:39:55.756Z,12.00
2019-05-02T18:42:27.699Z,8.15
2019-05-02T18:45:03.685Z,12.50
2019-05-02T18:47:38.521Z,10.68
2019-05-02T18:50:27.405Z,10.48
2019-05-02T18:53:03.519Z,8.63
2019-05-02T18:55:38.202Z,11.85
2019-05-02T18:58:13.044Z,12.80
2019-05-02T19:00:47.644Z,15.70
2019-05-02T19:03:23.040Z,12.28
2019-05-02T19:05:58.477Z,30.48
2019-05-02T19:08:45.256Z,16.27
2019-05-02T19:11:12.317Z,14.38
2019-05-02T19:13:47.133Z,10.15
2019-05-02T19:16:24.997Z,11.03
2019-05-02T19:18:57.762Z,10.82
2019-05-02T19:21:36.146Z,9.50
2019-05-02T19:24:08.352Z,16.52
2019-05-02T19:26:49.215Z,13.18
2019-05-02T19:29:22.121Z,10.82
2019-05-02T19:31:56.972Z,10.63
2019-05-02T19:34:32.378Z,13.70
2019-05-02T19:37:06.756Z,10.88
2019-05-02T19:39:46.885Z,10.78
2019-05-02T19:42:22.656Z,11.53
2019-05-02T19:44:53.845Z,12.37
2019-05-02T19:47:28.056Z,12.93
2019-05-02T19:50:03.055Z,13.70
2019-05-02T19:52:40.523Z,10.23
2019-05-02T19:55:19.921Z,11.43
2019-05-02T19:57:52.278Z,9.10
2019-05-02T20:00:26.465Z,12.30
2019-05-02T20:03:01.758Z,12.68
2019-05-02T20:05:36.094Z,10.13
2019-05-02T20:08:14.843Z,9.93
2019-05-02T20:10:49.246Z,9.90
2019-05-02T20:13:28.258Z,8.90
2019-05-02T20:16:12.175Z,8.20
2019-05-02T20:18:47.323Z,12.73
2019-05-02T20:21:27.884Z,13.98
2019-05-02T20:24:04.257Z,9.03
2019-05-02T20:26:37.933Z,12.30
2019-05-02T20:29:11.999Z,13.15
2019-05-02T20:34:19.819Z,11.83
2019-05-02T20:36:54.011Z,10.58
2019-05-02T20:39:28.176Z,10.90
2019-05-02T20:42:02.729Z,10.80
2019-05-02T20:44:36.955Z,11.88
2019-05-02T20:47:13.957Z,12.18
2019-05-02T20:49:48.283Z,13.18
2019-05-02T20:52:22.820Z,11.03
2019-05-02T20:54:56.831Z,10.98
2019-05-02T20:57:31.809Z,12.75
2019-05-02T21:00:12.236Z,9.58
2019-05-02T21:02:46.513Z,11.53
2019-05-02T21:05:23.848Z,10.43
2019-05-02T21:08:05.732Z,11.38
2019-05-02T21:10:41.784Z,8.88
2019-05-02T21:13:16.198Z,8.83
2019-05-02T21:15:52.242Z,10.88
2019-05-02T21:18:26.022Z,10.43
2019-05-02T21:23:43.728Z,11.33
2019-05-02T21:26:09.755Z,10.23
2019-05-02T21:28:46.176Z,11.12
2019-05-02T21:31:20.135Z,10.25
2019-05-02T21:33:54.281Z,10.00
2019-05-02T21:39:02.845Z,11.38
2019-05-02T21:41:37.318Z,10.63
2019-05-02T21:44:13.112Z,10.85
2019-05-02T21:46:47.615Z,9.58
2019-05-02T21:49:39.515Z,12.88
2019-05-02T21:52:17.884Z,11.10
2019-05-02T21:55:02.402Z,10.58
2019-05-02T21:57:36.961Z,9.78
2019-05-02T22:00:15.557Z,8.93
2019-05-02T22:02:52.220Z,11.78
2019-05-02T22:05:26.419Z,11.90
2019-05-02T22:08:00.571Z,8.73
2019-05-02T22:10:34.985Z,9.63
2019-05-02T22:13:09.199Z,11.78
2019-05-02T22:15:43.324Z,10.23
2019-05-02T22:18:17.479Z,7.00
2019-05-02T22:23:26.611Z,10.65
2019-05-02T22:26:02.095Z,7.92
2019-05-02T22:28:36.219Z,10.25
2019-05-02T22:31:12.259Z,10.58
2019-05-02T22:33:46.558Z,9.88
2019-05-02T22:36:21.797Z,12.07
2019-05-02T22:38:57.445Z,11.15
2019-05-02T22:41:32.535Z,10.65
2019-05-02T22:44:07.155Z,14.35
2019-05-02T22:46:43.483Z,10.38
2019-05-02T22:49:17.914Z,11.18
2019-05-02T22:51:52.327Z,14.07
2019-05-02T22:54:30.335Z,13.62
2019-05-02T22:57:02.655Z,14.10
2019-05-02T22:59:36.794Z,15.65
2019-05-02T23:04:44.433Z,10.85
2019-05-02T23:09:52.800Z,10.95
2019-05-02T23:12:27.100Z,15.40
2019-05-02T23:15:01.953Z,9.98
2019-05-02T23:17:35.987Z,9.95
2019-05-02T23:22:43.727Z,10.70
2019-05-02T23:25:35.569Z,9.30
2019-05-02T23:28:13.903Z,9.60
2019-05-02T23:30:47.966Z,11.40
2019-05-02T23:35:57.359Z,11.53
2019-05-02T23:38:32.328Z,16.35
2019-05-02T23:41:06.940Z,16.55
2019-05-02T23:43:41.629Z,8.85
2019-05-02T23:46:16.301Z,9.43
2019-05-02T23:48:52.526Z,12.18
2019-05-02T23:51:26.524Z,10.28
2019-05-02T23:54:02.139Z,9.48
2019-05-02T23:56:36.369Z,11.60
2019-05-02T23:59:11.848Z,8.55
